Time,TemperatureF,DewpointF,PressureIn,WindDirection,WindDirectionDegrees,WindSpeedMPH,WindSpeedGustMPH,Humidity,HourlyPrecipIn,Conditions,Clouds,dailyrainin,SoftwareType,DateUTC
2013-02-20 00:00:00,37.9,24.5,29.84,WNW,283,3.0,12.0,58,0.00,,,0.00,WUHU216DAVISVP2,2013-02-20 05:00:00,
2013-02-20 00:05:00,37.8,25.6,29.85,WNW,286,3.0,12.0,61,0.00,,,0.00,WUHU216DAVISVP2,2013-02-20 05:05:00,
2013-02-20 00:10:00,37.7,23.9,29.85,WNW,300,1.0,12.0,57,0.00,,,0.00,WUHU216DAVISVP2,2013-02-20 05:10:00,
2013-02-20 00:15:00,37.7,23.4,29.85,West,271,11.0,12.0,56,0.00,,,0.00,WUHU216DAVISVP2,2013-02-20 05:15:00,
2013-02-20 00:20:00,37.7,23.4,29.85,WNW,289,4.0,12.0,56,0.00,,,0.00,WUHU216DAVISVP2,2013-02-20 05:20:00,
2013-02-20 00:25:00,37.8,23.5,29.85,WNW,297,2.0,12.0,56,0.00,,,0.00,WUHU216DAVISVP2,2013-02-20 05:25:00,
2013-02-20 00:30:00,37.7,23.4,29.85,West,281,4.0,12.0,56,0.00,,,0.00,WUHU216DAVISVP2,2013-02-20 05:30:00,
2013-02-20 00:35:00,37.5,23.2,29.85,West,281,4.0,11.0,56,0.00,,,0.00,WUHU216DAVISVP2,2013-02-20 05:35:00,
2013-02-20 00:40:00,37.4,23.6,29.86,WSW,257,6.0,11.0,57,0.00,,,0.00,WUHU216DAVISVP2,2013-02-20 05:40:00,
2013-02-20 00:45:00,37.3,23.1,29.86,WNW,287,4.0,11.0,56,0.00,,,0.00,WUHU216DAVISVP2,2013-02-20 05:45:00,
2013-02-20 00:50:00,37.3,23.1,29.86,SW,236,2.0,11.0,56,0.00,,,0.00,WUHU216DAVISVP2,2013-02-20 05:50:00,
2013-02-20 00:55:00,37.2,23.0,29.86,West,260,2.0,16.0,56,0.00,,,0.00,WUHU216DAVISVP2,2013-02-20 05:55:00,
2013-02-20 01:00:00,37.1,22.9,29.86,West,265,2.0,16.0,56,0.00,,,0.00,WUHU216DAVISVP2,2013-02-20 06:00:00,
2013-02-20 01:05:00,37.0,23.2,29.86,WNW,282,3.0,16.0,57,0.00,,,0.00,WUHU216DAVISVP2,2013-02-20 06:05:00,
2013-02-20 01:10:00,37.0,22.8,29.86,NW,319,6.0,16.0,56,0.00,,,0.00,WUHU216DAVISVP2,2013-02-20 06:10:00,
2013-02-20 01:15:00,37.0,23.2,29.86,West,263,4.0,11.0,57,0.00,,,0.00,WUHU216DAVISVP2,2013-02-20 06:15:00,
2013-02-20 01:20:00,36.8,23.0,29.86,West,269,1.0,11.0,57,0.00,,,0.00,WUHU216DAVISVP2,2013-02-20 06:20:00,
2013-02-20 01:25:00,36.8,23.0,29.87,West,280,4.0,16.0,57,0.00,,,0.00,WUHU216DAVISVP2,2013-02-20 06:25:00,
2013-02-20 01:30:00,36.7,23.3,29.87,NW,306,1.0,16.0,58,0.00,,,0.00,WUHU216DAVISVP2,2013-02-20 06:30:00,
2013-02-20 01:35:00,36.7,22.5,29.87,WNW,300,1.0,16.0,56,0.00,,,0.00,WUHU216DAVISVP2,2013-02-20 06:35:00,
2013-02-20 01:40:00,36.8,23.0,29.87,West,261,11.0,17.0,57,0.00,,,0.00,WUHU216DAVISVP2,2013-02-20 06:40:00,
2013-02-20 01:45:00,36.7,22.5,29.87,NNW,346,4.0,17.0,56,0.00,,,0.00,WUHU216DAVISVP2,2013-02-20 06:45:00,
2013-02-20 01:50:00,36.6,22.4,29.87,WSW,240,2.0,17.0,56,0.00,,,0.00,WUHU216DAVISVP2,2013-02-20 06:50:00,
2013-02-20 01:55:00,36.6,22.4,29.88,West,263,5.0,17.0,56,0.00,,,0.00,WUHU216DAVISVP2,2013-02-20 06:55:00,
2013-02-20 02:00:00,36.6,22.8,29.88,NW,319,14.0,14.0,57,0.00,,,0.00,WUHU216DAVISVP2,2013-02-20 07:00:00,
2013-02-20 02:05:00,36.7,22.5,29.88,West,269,6.0,18.0,56,0.00,,,0.00,WUHU216DAVISVP2,2013-02-20 07:05:00,
2013-02-20 02:10:00,36.7,22.5,29.88,WNW,283,6.0,18.0,56,0.00,,,0.00,WUHU216DAVISVP2,2013-02-20 07:10:00,
2013-02-20 02:15:00,36.6,22.8,29.88,West,279,2.0,18.0,57,0.00,,,0.00,WUHU216DAVISVP2,2013-02-20 07:15:00,
2013-02-20 02:20:00,36.4,23.1,29.88,WNW,283,3.0,18.0,58,0.00,,,0.00,WUHU216DAVISVP2,2013-02-20 07:20:00,
2013-02-20 02:25:00,36.2,23.3,29.88,North,5,3.0,8.0,59,0.00,,,0.00,WUHU216DAVISVP2,2013-02-20 07:25:00,
2013-02-20 02:30:00,36.1,22.8,29.88,NNW,346,2.0,14.0,58,0.00,,,0.00,WUHU216DAVISVP2,2013-02-20 07:30:00,
2013-02-20 02:35:00,36.1,23.2,29.89,NNW,332,4.0,14.0,59,0.00,,,0.00,WUHU216DAVISVP2,2013-02-20 07:35:00,
2013-02-20 02:40:00,36.0,23.1,29.89,East,82,5.0,14.0,59,0.00,,,0.00,WUHU216DAVISVP2,2013-02-20 07:40:00,
2013-02-20 02:45:00,35.9,23.0,29.89,WNW,282,5.0,14.0,59,0.00,,,0.00,WUHU216DAVISVP2,2013-02-20 07:45:00,
2013-02-20 02:50:00,35.8,22.5,29.89,WNW,302,2.0,14.0,58,0.00,,,0.00,WUHU216DAVISVP2,2013-02-20 07:50:00,
2013-02-20 02:55:00,35.8,22.1,29.89,WSW,252,3.0,21.0,57,0.00,,,0.00,WUHU216DAVISVP2,2013-02-20 07:55:00,
2013-02-20 03:00:00,35.8,21.6,29.89,West,273,4.0,21.0,56,0.00,,,0.00,WUHU216DAVISVP2,2013-02-20 08:00:00,
2013-02-20 03:05:00,35.7,21.6,29.89,West,277,6.0,21.0,56,0.00,,,0.00,WUHU216DAVISVP2,2013-02-20 08:05:00,
2013-02-20 03:10:00,35.7,21.1,29.89,West,266,9.0,21.0,55,0.00,,,0.00,WUHU216DAVISVP2,2013-02-20 08:10:00,
2013-02-20 03:15:00,35.6,21.5,29.89,North,355,0.0,18.0,56,0.00,,,0.00,WUHU216DAVISVP2,2013-02-20 08:15:00,
2013-02-20 03:20:00,35.5,21.8,29.89,NW,312,5.0,18.0,57,0.00,,,0.00,WUHU216DAVISVP2,2013-02-20 08:20:00,
2013-02-20 03:25:00,35.3,22.0,29.89,NNW,337,4.0,18.0,58,0.00,,,0.00,WUHU216DAVISVP2,2013-02-20 08:25:00,
2013-02-20 03:30:00,35.2,21.9,29.90,West,273,2.0,12.0,58,0.00,,,0.00,WUHU216DAVISVP2,2013-02-20 08:30:00,
2013-02-20 03:35:00,34.9,22.1,29.90,NNW,344,1.0,12.0,59,0.00,,,0.00,WUHU216DAVISVP2,2013-02-20 08:35:00,
2013-02-20 03:40:00,34.7,22.3,29.90,WNW,298,0.0,12.0,60,0.00,,,0.00,WUHU216DAVISVP2,2013-02-20 08:40:00,
2013-02-20 03:45:00,34.4,22.0,29.90,WNW,297,0.0,10.0,60,0.00,,,0.00,WUHU216DAVISVP2,2013-02-20 08:45:00,
2013-02-20 03:50:00,34.1,22.1,29.90,WNW,286,3.0,10.0,61,0.00,,,0.00,WUHU216DAVISVP2,2013-02-20 08:50:00,
2013-02-20 03:55:00,33.9,21.9,29.90,NNW,344,2.0,9.0,61,0.00,,,0.00,WUHU216DAVISVP2,2013-02-20 08:55:00,
2013-02-20 04:00:00,33.7,21.3,29.90,WNW,292,1.0,8.0,60,0.00,,,0.00,WUHU216DAVISVP2,2013-02-20 09:00:00,
2013-02-20 04:05:00,33.6,20.0,29.90,NW,311,3.0,13.0,57,0.00,,,0.00,WUHU216DAVISVP2,2013-02-20 09:05:00,
2013-02-20 04:10:00,33.6,19.6,29.90,WNW,298,5.0,15.0,56,0.00,,,0.00,WUHU216DAVISVP2,2013-02-20 09:10:00,
2013-02-20 04:15:00,33.6,19.6,29.91,WNW,300,3.0,15.0,56,0.00,,,0.00,WUHU216DAVISVP2,2013-02-20 09:15:00,
2013-02-20 04:20:00,33.4,19.4,29.91,NW,321,4.0,15.0,56,0.00,,,0.00,WUHU216DAVISVP2,2013-02-20 09:20:00,
2013-02-20 04:25:00,33.3,19.7,29.91,NNW,331,2.0,15.0,57,0.00,,,0.00,WUHU216DAVISVP2,2013-02-20 09:25:00,
2013-02-20 04:30:00,33.2,19.2,29.91,NNE,12,5.0,15.0,56,0.00,,,0.00,WUHU216DAVISVP2,2013-02-20 09:30:00,
2013-02-20 04:35:00,33.0,19.4,29.91,NNW,329,3.0,15.0,57,0.00,,,0.00,WUHU216DAVISVP2,2013-02-20 09:35:00,
2013-02-20 04:40:00,33.0,19.4,29.91,West,279,3.0,15.0,57,0.00,,,0.00,WUHU216DAVISVP2,2013-02-20 09:40:00,
2013-02-20 04:45:00,32.9,18.9,29.92,West,280,2.0,13.0,56,0.00,,,0.00,WUHU216DAVISVP2,2013-02-20 09:45:00,
2013-02-20 04:50:00,32.8,19.3,29.92,NW,313,1.0,8.0,57,0.00,,,0.00,WUHU216DAVISVP2,2013-02-20 09:50:00,
2013-02-20 04:55:00,32.6,19.1,29.92,NW,310,0.0,8.0,57,0.00,,,0.00,WUHU216DAVISVP2,2013-02-20 09:55:00,
2013-02-20 05:00:00,32.3,19.2,29.92,North,360,1.0,8.0,58,0.00,,,0.00,WUHU216DAVISVP2,2013-02-20 10:00:00,
2013-02-20 05:05:00,32.2,19.1,29.92,NNW,346,3.0,4.0,58,0.00,,,0.00,WUHU216DAVISVP2,2013-02-20 10:05:00,
2013-02-20 05:10:00,32.0,19.3,29.92,West,269,0.0,5.0,59,0.00,,,0.00,WUHU216DAVISVP2,2013-02-20 10:10:00,
2013-02-20 05:15:00,31.8,19.1,29.93,NW,323,6.0,7.0,59,0.00,,,0.00,WUHU216DAVISVP2,2013-02-20 10:15:00,
2013-02-20 05:20:00,31.7,19.0,29.93,WNW,282,0.0,8.0,59,0.00,,,0.00,WUHU216DAVISVP2,2013-02-20 10:20:00,
2013-02-20 05:25:00,31.6,19.3,29.93,NNW,327,1.0,8.0,60,0.00,,,0.00,WUHU216DAVISVP2,2013-02-20 10:25:00,
2013-02-20 05:30:00,31.6,18.9,29.94,WNW,298,2.0,8.0,59,0.00,,,0.00,WUHU216DAVISVP2,2013-02-20 10:30:00,
2013-02-20 05:35:00,31.6,18.9,29.94,NW,310,0.0,8.0,59,0.00,,,0.00,WUHU216DAVISVP2,2013-02-20 10:35:00,
2013-02-20 05:40:00,31.7,19.0,29.94,WNW,283,0.0,8.0,59,0.00,,,0.00,WUHU216DAVISVP2,2013-02-20 10:40:00,
2013-02-20 05:45:00,31.7,19.0,29.94,North,5,2.0,11.0,59,0.00,,,0.00,WUHU216DAVISVP2,2013-02-20 10:45:00,
2013-02-20 05:50:00,31.9,18.8,29.94,NW,304,3.0,11.0,58,0.00,,,0.00,WUHU216DAVISVP2,2013-02-20 10:50:00,
2013-02-20 05:55:00,32.0,20.5,29.94,NW,315,1.0,11.0,62,0.00,,,0.00,WUHU216DAVISVP2,2013-02-20 10:55:00,
2013-02-20 06:00:00,32.0,20.5,29.95,WNW,292,0.0,11.0,62,0.00,,,0.00,WUHU216DAVISVP2,2013-02-20 11:00:00,
2013-02-20 06:05:00,31.9,19.2,29.95,WNW,300,1.0,7.0,59,0.00,,,0.00,WUHU216DAVISVP2,2013-02-20 11:05:00,
2013-02-20 06:10:00,31.8,18.3,29.95,WNW,286,3.0,8.0,57,0.00,,,0.00,WUHU216DAVISVP2,2013-02-20 11:10:00,
2013-02-20 06:15:00,31.8,17.0,29.96,NNW,339,8.0,14.0,54,0.00,,,0.00,WUHU216DAVISVP2,2013-02-20 11:15:00,
2013-02-20 06:20:00,31.8,16.1,29.96,NW,310,2.0,15.0,52,0.00,,,0.00,WUHU216DAVISVP2,2013-02-20 11:20:00,
2013-02-20 06:25:00,31.8,16.1,29.97,WNW,285,4.0,15.0,52,0.00,,,0.00,WUHU216DAVISVP2,2013-02-20 11:25:00,
2013-02-20 06:30:00,31.7,16.0,29.97,WNW,289,5.0,15.0,52,0.00,,,0.00,WUHU216DAVISVP2,2013-02-20 11:30:00,
2013-02-20 06:35:00,31.7,16.0,29.97,NW,312,6.0,15.0,52,0.00,,,0.00,WUHU216DAVISVP2,2013-02-20 11:35:00,
2013-02-20 06:40:00,31.6,15.9,29.97,WNW,295,14.0,16.0,52,0.00,,,0.00,WUHU216DAVISVP2,2013-02-20 11:40:00,
2013-02-20 06:45:00,31.5,15.9,29.97,West,278,7.0,16.0,52,0.00,,,0.00,WUHU216DAVISVP2,2013-02-20 11:45:00,
2013-02-20 06:50:00,31.5,16.3,29.97,North,360,3.0,16.0,53,0.00,,,0.00,WUHU216DAVISVP2,2013-02-20 11:50:00,
2013-02-20 06:55:00,31.4,16.2,29.98,WNW,291,3.0,16.0,53,0.00,,,0.00,WUHU216DAVISVP2,2013-02-20 11:55:00,
2013-02-20 07:00:00,31.4,15.8,29.98,North,360,0.0,15.0,52,0.00,,,0.00,WUHU216DAVISVP2,2013-02-20 12:00:00,
2013-02-20 07:05:00,31.4,16.2,29.98,WNW,284,3.0,15.0,53,0.00,,,0.00,WUHU216DAVISVP2,2013-02-20 12:05:00,
2013-02-20 07:10:00,31.2,16.0,29.99,NNW,344,1.0,14.0,53,0.00,,,0.00,WUHU216DAVISVP2,2013-02-20 12:10:00,
2013-02-20 07:15:00,31.2,16.5,29.99,NNW,333,0.0,14.0,54,0.00,,,0.00,WUHU216DAVISVP2,2013-02-20 12:15:00,
2013-02-20 07:20:00,31.2,16.5,29.99,NW,321,3.0,14.0,54,0.00,,,0.00,WUHU216DAVISVP2,2013-02-20 12:20:00,
2013-02-20 07:25:00,31.3,17.0,29.99,WSW,248,5.0,13.0,55,0.00,,,0.00,WUHU216DAVISVP2,2013-02-20 12:25:00,
2013-02-20 07:30:00,31.2,16.9,30.00,West,281,6.0,13.0,55,0.00,,,0.00,WUHU216DAVISVP2,2013-02-20 12:30:00,
2013-02-20 07:35:00,31.2,17.3,30.00,NNW,327,3.0,13.0,56,0.00,,,0.00,WUHU216DAVISVP2,2013-02-20 12:35:00,
2013-02-20 07:40:00,31.2,17.3,30.00,West,274,7.0,13.0,56,0.00,,,0.00,WUHU216DAVISVP2,2013-02-20 12:40:00,
2013-02-20 07:45:00,31.2,17.3,30.00,NNW,332,4.0,11.0,56,0.00,,,0.00,WUHU216DAVISVP2,2013-02-20 12:45:00,
2013-02-20 07:50:00,31.2,17.3,30.00,NW,323,6.0,11.0,56,0.00,,,0.00,WUHU216DAVISVP2,2013-02-20 12:50:00,
2013-02-20 07:55:00,31.4,17.9,30.00,NNE,19,1.0,11.0,57,0.00,,,0.00,WUHU216DAVISVP2,2013-02-20 12:55:00,
2013-02-20 08:00:00,31.4,17.5,30.01,West,263,2.0,11.0,56,0.00,,,0.00,WUHU216DAVISVP2,2013-02-20 13:00:00,
2013-02-20 08:05:00,31.5,17.6,30.00,NNW,327,1.0,11.0,56,0.00,,,0.00,WUHU216DAVISVP2,2013-02-20 13:05:00,
2013-02-20 08:10:00,31.6,17.7,30.00,WNW,286,3.0,8.0,56,0.00,,,0.00,WUHU216DAVISVP2,2013-02-20 13:10:00,
2013-02-20 08:15:00,31.5,17.2,30.00,NNW,340,2.0,11.0,55,0.00,,,0.00,WUHU216DAVISVP2,2013-02-20 13:15:00,
2013-02-20 08:20:00,31.4,17.1,30.00,WNW,301,2.0,13.0,55,0.00,,,0.00,WUHU216DAVISVP2,2013-02-20 13:20:00,
2013-02-20 08:25:00,31.5,17.6,30.00,West,279,2.0,18.0,56,0.00,,,0.00,WUHU216DAVISVP2,2013-02-20 13:25:00,
2013-02-20 08:30:00,31.5,17.6,30.00,WNW,290,3.0,18.0,56,0.00,,,0.00,WUHU216DAVISVP2,2013-02-20 13:30:00,
2013-02-20 08:35:00,31.5,17.2,30.00,NNW,342,0.0,18.0,55,0.00,,,0.00,WUHU216DAVISVP2,2013-02-20 13:35:00,
2013-02-20 08:40:00,31.6,17.3,30.01,WNW,286,5.0,18.0,55,0.00,,,0.00,WUHU216DAVISVP2,2013-02-20 13:40:00,
2013-02-20 08:45:00,31.8,16.6,30.01,WSW,255,10.0,15.0,53,0.00,,,0.00,WUHU216DAVISVP2,2013-02-20 13:45:00,
2013-02-20 08:50:00,31.7,17.4,30.01,West,271,0.0,15.0,55,0.00,,,0.00,WUHU216DAVISVP2,2013-02-20 13:50:00,
2013-02-20 08:55:00,31.6,17.3,30.01,WNW,286,4.0,17.0,55,0.00,,,0.00,WUHU216DAVISVP2,2013-02-20 13:55:00,
2013-02-20 09:00:00,31.6,17.3,30.01,West,279,3.0,17.0,55,0.00,,,0.00,WUHU216DAVISVP2,2013-02-20 14:00:00,
2013-02-20 09:05:00,31.6,17.3,30.01,WNW,286,6.0,17.0,55,0.00,,,0.00,WUHU216DAVISVP2,2013-02-20 14:05:00,
2013-02-20 09:10:00,31.6,17.3,30.02,West,270,4.0,17.0,55,0.00,,,0.00,WUHU216DAVISVP2,2013-02-20 14:10:00,
2013-02-20 09:15:00,31.6,17.3,30.01,West,272,3.0,13.0,55,0.00,,,0.00,WUHU216DAVISVP2,2013-02-20 14:15:00,
2013-02-20 09:20:00,31.8,17.9,30.01,NE,50,7.0,13.0,56,0.00,,,0.00,WUHU216DAVISVP2,2013-02-20 14:20:00,
2013-02-20 09:25:00,31.9,17.1,30.01,West,271,4.0,15.0,54,0.00,,,0.00,WUHU216DAVISVP2,2013-02-20 14:25:00,
2013-02-20 09:30:00,32.3,17.5,30.01,NNW,339,3.0,15.0,54,0.00,,,0.00,WUHU216DAVISVP2,2013-02-20 14:30:00,
2013-02-20 09:35:00,33.0,18.1,30.01,West,279,12.0,15.0,54,0.00,,,0.00,WUHU216DAVISVP2,2013-02-20 14:35:00,
2013-02-20 09:40:00,33.3,18.4,30.01,NNW,330,13.0,17.0,54,0.00,,,0.00,WUHU216DAVISVP2,2013-02-20 14:40:00,
2013-02-20 09:45:00,33.5,18.2,30.01,West,273,2.0,17.0,53,0.00,,,0.00,WUHU216DAVISVP2,2013-02-20 14:45:00,
2013-02-20 09:50:00,33.3,18.4,30.01,North,355,1.0,17.0,54,0.00,,,0.00,WUHU216DAVISVP2,2013-02-20 14:50:00,
2013-02-20 09:55:00,32.9,17.2,30.00,North,11,3.0,17.0,52,0.00,,,0.00,WUHU216DAVISVP2,2013-02-20 14:55:00,
2013-02-20 10:00:00,32.4,17.1,30.01,West,279,4.0,15.0,53,0.00,,,0.00,WUHU216DAVISVP2,2013-02-20 15:00:00,
2013-02-20 10:05:00,32.1,17.3,30.01,West,273,7.0,15.0,54,0.00,,,0.00,WUHU216DAVISVP2,2013-02-20 15:05:00,
2013-02-20 10:10:00,32.0,16.8,30.01,WNW,299,3.0,15.0,53,0.00,,,0.00,WUHU216DAVISVP2,2013-02-20 15:10:00,
2013-02-20 10:15:00,32.0,17.2,30.02,NNW,338,3.0,15.0,54,0.00,,,0.00,WUHU216DAVISVP2,2013-02-20 15:15:00,
2013-02-20 10:20:00,32.2,17.4,30.02,West,269,5.0,15.0,54,0.00,,,0.00,WUHU216DAVISVP2,2013-02-20 15:20:00,
2013-02-20 10:25:00,32.4,18.0,30.01,West,265,2.0,15.0,55,0.00,,,0.00,WUHU216DAVISVP2,2013-02-20 15:25:00,
2013-02-20 10:30:00,32.6,17.3,30.01,NNE,30,8.0,14.0,53,0.00,,,0.00,WUHU216DAVISVP2,2013-02-20 15:30:00,
2013-02-20 10:35:00,32.8,18.4,30.02,West,274,4.0,19.0,55,0.00,,,0.00,WUHU216DAVISVP2,2013-02-20 15:35:00,
2013-02-20 10:40:00,33.2,17.9,30.02,West,273,11.0,19.0,53,0.00,,,0.00,WUHU216DAVISVP2,2013-02-20 15:40:00,
2013-02-20 10:45:00,33.7,18.8,30.02,NW,311,4.0,19.0,54,0.00,,,0.00,WUHU216DAVISVP2,2013-02-20 15:45:00,
2013-02-20 10:50:00,33.9,18.1,30.02,West,281,5.0,19.0,52,0.00,,,0.00,WUHU216DAVISVP2,2013-02-20 15:50:00,
2013-02-20 10:55:00,34.4,19.0,30.02,NNW,343,1.0,15.0,53,0.00,,,0.00,WUHU216DAVISVP2,2013-02-20 15:55:00,
2013-02-20 11:00:00,34.6,17.8,30.02,WNW,294,4.0,19.0,50,0.00,,,0.00,WUHU216DAVISVP2,2013-02-20 16:00:00,
2013-02-20 11:05:00,34.4,17.6,30.02,West,263,4.0,19.0,50,0.00,,,0.00,WUHU216DAVISVP2,2013-02-20 16:05:00,
2013-02-20 11:10:00,34.1,17.3,30.02,WNW,286,5.0,19.0,50,0.00,,,0.00,WUHU216DAVISVP2,2013-02-20 16:10:00,
2013-02-20 11:15:00,33.6,17.3,30.02,NW,309,3.0,19.0,51,0.00,,,0.00,WUHU216DAVISVP2,2013-02-20 16:15:00,
2013-02-20 11:20:00,33.4,17.2,30.02,West,264,4.0,16.0,51,0.00,,,0.00,WUHU216DAVISVP2,2013-02-20 16:20:00,
2013-02-20 11:25:00,33.4,16.7,30.02,WNW,298,3.0,16.0,50,0.00,,,0.00,WUHU216DAVISVP2,2013-02-20 16:25:00,
2013-02-20 11:30:00,33.2,16.5,30.03,North,351,4.0,16.0,50,0.00,,,0.00,WUHU216DAVISVP2,2013-02-20 16:30:00,
2013-02-20 11:35:00,33.1,16.4,30.02,NW,318,1.0,16.0,50,0.00,,,0.00,WUHU216DAVISVP2,2013-02-20 16:35:00,
2013-02-20 11:40:00,33.2,17.0,30.02,NNW,338,4.0,16.0,51,0.00,,,0.00,WUHU216DAVISVP2,2013-02-20 16:40:00,
2013-02-20 11:46:00,33.4,17.6,30.02,NW,304,7.0,16.0,52,0.00,,,0.00,WUHU216DAVISVP2,2013-02-20 16:46:00,
2013-02-20 11:51:00,33.8,18.0,30.01,NW,315,2.0,16.0,52,0.00,,,0.00,WUHU216DAVISVP2,2013-02-20 16:51:00,
2013-02-20 11:56:00,34.2,17.9,30.02,West,276,14.0,18.0,51,0.00,,,0.00,WUHU216DAVISVP2,2013-02-20 16:56:00,
2013-02-20 12:01:00,33.9,17.6,30.01,WSW,242,12.0,18.0,51,0.00,,,0.00,WUHU216DAVISVP2,2013-02-20 17:01:00,
2013-02-20 12:06:00,33.8,17.5,30.01,West,281,5.0,18.0,51,0.00,,,0.00,WUHU216DAVISVP2,2013-02-20 17:06:00,
2013-02-20 12:11:00,33.7,17.9,30.02,West,278,7.0,18.0,52,0.00,,,0.00,WUHU216DAVISVP2,2013-02-20 17:11:00,
2013-02-20 12:16:00,33.7,18.4,30.02,WSW,252,2.0,18.0,53,0.00,,,0.00,WUHU216DAVISVP2,2013-02-20 17:16:00,
2013-02-20 12:21:00,33.8,18.4,30.02,NNW,331,8.0,14.0,53,0.00,,,0.00,WUHU216DAVISVP2,2013-02-20 17:21:00,
2013-02-20 12:26:00,33.8,18.0,30.01,WSW,242,7.0,13.0,52,0.00,,,0.00,WUHU216DAVISVP2,2013-02-20 17:26:00,
2013-02-20 12:31:00,33.8,18.4,30.02,WNW,287,4.0,13.0,53,0.00,,,0.00,WUHU216DAVISVP2,2013-02-20 17:31:00,
2013-02-20 12:36:00,33.8,18.4,30.01,West,268,6.0,13.0,53,0.00,,,0.00,WUHU216DAVISVP2,2013-02-20 17:36:00,
2013-02-20 12:41:00,33.5,18.2,30.01,WNW,286,3.0,17.0,53,0.00,,,0.00,WUHU216DAVISVP2,2013-02-20 17:41:00,
2013-02-20 12:46:00,33.4,18.1,30.01,West,270,5.0,17.0,53,0.00,,,0.00,WUHU216DAVISVP2,2013-02-20 17:46:00,
2013-02-20 12:51:00,33.4,19.0,30.01,North,5,5.0,17.0,55,0.00,,,0.00,WUHU216DAVISVP2,2013-02-20 17:51:00,
2013-02-20 12:56:00,33.6,19.1,30.01,West,263,4.0,17.0,55,0.00,,,0.00,WUHU216DAVISVP2,2013-02-20 17:56:00,
2013-02-20 13:01:00,33.7,19.7,30.01,West,264,9.0,13.0,56,0.00,,,0.00,WUHU216DAVISVP2,2013-02-20 18:01:00,
2013-02-20 13:06:00,33.9,19.4,30.01,WNW,286,1.0,13.0,55,0.00,,,0.00,WUHU216DAVISVP2,2013-02-20 18:06:00,
2013-02-20 13:11:00,33.8,19.3,30.01,West,261,5.0,21.0,55,0.00,,,0.00,WUHU216DAVISVP2,2013-02-20 18:11:00,
2013-02-20 13:16:00,33.9,19.9,30.01,WNW,296,3.0,21.0,56,0.00,,,0.00,WUHU216DAVISVP2,2013-02-20 18:16:00,
2013-02-20 13:21:00,34.4,20.3,30.01,NW,304,5.0,21.0,56,0.00,,,0.00,WUHU216DAVISVP2,2013-02-20 18:21:00,
2013-02-20 13:26:00,35.3,20.7,30.01,NNE,28,3.0,14.0,55,0.00,,,0.00,WUHU216DAVISVP2,2013-02-20 18:26:00,
2013-02-20 13:31:00,35.7,20.7,30.01,WNW,291,2.0,13.0,54,0.00,,,0.00,WUHU216DAVISVP2,2013-02-20 18:31:00,
2013-02-20 13:36:00,35.5,20.5,30.01,WNW,290,8.0,12.0,54,0.00,,,0.00,WUHU216DAVISVP2,2013-02-20 18:36:00,
2013-02-20 13:41:00,35.4,20.4,30.00,NW,323,9.0,15.0,54,0.00,,,0.00,WUHU216DAVISVP2,2013-02-20 18:41:00,
2013-02-20 13:46:00,35.5,20.0,30.00,WNW,302,6.0,15.0,53,0.00,,,0.00,WUHU216DAVISVP2,2013-02-20 18:46:00,
2013-02-20 13:51:00,35.7,20.2,30.00,West,265,10.0,15.0,53,0.00,,,0.00,WUHU216DAVISVP2,2013-02-20 18:51:00,
2013-02-20 13:56:00,35.7,20.2,30.00,West,279,5.0,17.0,53,0.00,,,0.00,WUHU216DAVISVP2,2013-02-20 18:56:00,
2013-02-20 14:01:00,35.9,19.5,30.00,West,281,9.0,17.0,51,0.00,,,0.00,WUHU216DAVISVP2,2013-02-20 19:01:00,
2013-02-20 14:06:00,35.7,19.8,30.00,WSW,248,2.0,23.0,52,0.00,,,0.00,WUHU216DAVISVP2,2013-02-20 19:06:00,
2013-02-20 14:11:00,35.9,19.9,30.00,NW,306,9.0,23.0,52,0.00,,,0.00,WUHU216DAVISVP2,2013-02-20 19:11:00,
2013-02-20 14:16:00,36.3,19.8,30.00,NNW,339,3.0,23.0,51,0.00,,,0.00,WUHU216DAVISVP2,2013-02-20 19:16:00,
2013-02-20 14:21:00,36.4,19.9,30.00,NW,313,6.0,23.0,51,0.00,,,0.00,WUHU216DAVISVP2,2013-02-20 19:21:00,
2013-02-20 14:26:00,36.2,19.3,30.00,WNW,284,10.0,16.0,50,0.00,,,0.00,WUHU216DAVISVP2,2013-02-20 19:26:00,
2013-02-20 14:31:00,36.4,19.9,30.00,WNW,290,2.0,16.0,51,0.00,,,0.00,WUHU216DAVISVP2,2013-02-20 19:31:00,
2013-02-20 14:36:00,36.4,19.0,30.00,West,269,4.0,16.0,49,0.00,,,0.00,WUHU216DAVISVP2,2013-02-20 19:36:00,
2013-02-20 14:41:00,36.5,19.6,30.00,NNW,327,4.0,18.0,50,0.00,,,0.00,WUHU216DAVISVP2,2013-02-20 19:41:00,
2013-02-20 14:46:00,36.8,18.8,30.00,NW,325,9.0,18.0,48,0.00,,,0.00,WUHU216DAVISVP2,2013-02-20 19:46:00,
2013-02-20 14:51:00,36.8,18.8,30.01,West,259,8.0,18.0,48,0.00,,,0.00,WUHU216DAVISVP2,2013-02-20 19:51:00,
2013-02-20 14:56:00,36.8,18.3,30.01,NE,44,4.0,18.0,47,0.00,,,0.00,WUHU216DAVISVP2,2013-02-20 19:56:00,
2013-02-20 15:01:00,36.8,18.3,30.01,West,271,3.0,18.0,47,0.00,,,0.00,WUHU216DAVISVP2,2013-02-20 20:01:00,
2013-02-20 15:06:00,37.0,18.0,30.01,NW,318,6.0,18.0,46,0.00,,,0.00,WUHU216DAVISVP2,2013-02-20 20:06:00,
2013-02-20 15:11:00,36.8,18.3,30.01,NW,323,1.0,13.0,47,0.00,,,0.00,WUHU216DAVISVP2,2013-02-20 20:11:00,
2013-02-20 15:16:00,36.7,17.7,30.00,West,259,11.0,13.0,46,0.00,,,0.00,WUHU216DAVISVP2,2013-02-20 20:16:00,
2013-02-20 15:21:00,36.4,18.0,30.00,ESE,110,5.0,17.0,47,0.00,,,0.00,WUHU216DAVISVP2,2013-02-20 20:21:00,
2013-02-20 15:26:00,36.5,18.1,30.01,WNW,297,4.0,17.0,47,0.00,,,0.00,WUHU216DAVISVP2,2013-02-20 20:26:00,
2013-02-20 15:31:00,36.4,18.0,30.01,NW,314,4.0,17.0,47,0.00,,,0.00,WUHU216DAVISVP2,2013-02-20 20:31:00,
2013-02-20 15:36:00,36.4,18.5,30.01,NNW,344,2.0,17.0,48,0.00,,,0.00,WUHU216DAVISVP2,2013-02-20 20:36:00,
2013-02-20 15:41:00,36.4,18.0,30.02,NNW,328,2.0,15.0,47,0.00,,,0.00,WUHU216DAVISVP2,2013-02-20 20:41:00,
2013-02-20 15:46:00,36.5,18.1,30.01,NNW,336,10.0,15.0,47,0.00,,,0.00,WUHU216DAVISVP2,2013-02-20 20:46:00,
2013-02-20 15:51:00,36.2,18.3,30.02,North,360,6.0,13.0,48,0.00,,,0.00,WUHU216DAVISVP2,2013-02-20 20:51:00,
2013-02-20 15:56:00,36.0,17.6,30.02,NE,38,5.0,13.0,47,0.00,,,0.00,WUHU216DAVISVP2,2013-02-20 20:56:00,
2013-02-20 16:01:00,35.8,17.9,30.02,West,276,6.0,13.0,48,0.00,,,0.00,WUHU216DAVISVP2,2013-02-20 21:01:00,
2013-02-20 16:06:00,35.6,17.2,30.02,North,360,2.0,11.0,47,0.00,,,0.00,WUHU216DAVISVP2,2013-02-20 21:06:00,
2013-02-20 16:11:00,35.5,17.1,30.03,NE,38,5.0,13.0,47,0.00,,,0.00,WUHU216DAVISVP2,2013-02-20 21:11:00,
2013-02-20 16:16:00,35.3,17.0,30.03,North,360,5.0,13.0,47,0.00,,,0.00,WUHU216DAVISVP2,2013-02-20 21:16:00,
2013-02-20 16:21:00,35.2,16.9,30.03,NNE,22,6.0,13.0,47,0.00,,,0.00,WUHU216DAVISVP2,2013-02-20 21:21:00,
2013-02-20 16:26:00,35.3,17.0,30.03,NNW,338,6.0,13.0,47,0.00,,,0.00,WUHU216DAVISVP2,2013-02-20 21:26:00,
2013-02-20 16:31:00,35.3,17.5,30.03,WNW,300,10.0,13.0,48,0.00,,,0.00,WUHU216DAVISVP2,2013-02-20 21:31:00,
2013-02-20 16:36:00,35.1,16.3,30.03,North,11,5.0,15.0,46,0.00,,,0.00,WUHU216DAVISVP2,2013-02-20 21:36:00,
2013-02-20 16:41:00,34.9,17.1,30.03,WNW,286,5.0,15.0,48,0.00,,,0.00,WUHU216DAVISVP2,2013-02-20 21:41:00,
2013-02-20 16:46:00,34.7,16.9,30.03,West,267,4.0,15.0,48,0.00,,,0.00,WUHU216DAVISVP2,2013-02-20 21:46:00,
2013-02-20 16:51:00,34.4,16.6,30.04,WNW,290,7.0,15.0,48,0.00,,,0.00,WUHU216DAVISVP2,2013-02-20 21:51:00,
2013-02-20 16:56:00,34.2,16.5,30.05,North,5,3.0,13.0,48,0.00,,,0.00,WUHU216DAVISVP2,2013-02-20 21:56:00,
2013-02-20 17:01:00,34.1,15.9,30.05,NNE,19,8.0,13.0,47,0.00,,,0.00,WUHU216DAVISVP2,2013-02-20 22:01:00,
2013-02-20 17:06:00,33.8,16.1,30.05,NNW,329,2.0,17.0,48,0.00,,,0.00,WUHU216DAVISVP2,2013-02-20 22:06:00,
2013-02-20 17:11:00,33.5,16.3,30.06,NNE,17,9.0,17.0,49,0.00,,,0.00,WUHU216DAVISVP2,2013-02-20 22:11:00,
2013-02-20 17:16:00,33.4,15.7,30.06,NW,321,3.0,17.0,48,0.00,,,0.00,WUHU216DAVISVP2,2013-02-20 22:16:00,
2013-02-20 17:21:00,33.2,16.0,30.06,NNW,331,9.0,17.0,49,0.00,,,0.00,WUHU216DAVISVP2,2013-02-20 22:21:00,
2013-02-20 17:27:00,32.8,15.2,30.07,North,360,6.0,12.0,48,0.00,,,0.00,WUHU216DAVISVP2,2013-02-20 22:27:00,
2013-02-20 17:32:00,32.6,15.5,30.07,NW,312,6.0,15.0,49,0.00,,,0.00,WUHU216DAVISVP2,2013-02-20 22:32:00,
2013-02-20 17:37:00,32.3,15.2,30.08,WNW,302,8.0,15.0,49,0.00,,,0.00,WUHU216DAVISVP2,2013-02-20 22:37:00,
2013-02-20 17:42:00,32.1,15.0,30.07,North,355,8.0,19.0,49,0.00,,,0.00,WUHU216DAVISVP2,2013-02-20 22:42:00,
2013-02-20 17:47:00,31.9,15.3,30.08,WNW,283,2.0,19.0,50,0.00,,,0.00,WUHU216DAVISVP2,2013-02-20 22:47:00,
2013-02-20 17:52:00,31.7,15.6,30.08,North,355,7.0,19.0,51,0.00,,,0.00,WUHU216DAVISVP2,2013-02-20 22:52:00,
2013-02-20 17:57:00,31.5,15.4,30.08,WNW,284,2.0,19.0,51,0.00,,,0.00,WUHU216DAVISVP2,2013-02-20 22:57:00,
2013-02-20 18:02:00,31.2,15.1,30.09,North,355,6.0,12.0,51,0.00,,,0.00,WUHU216DAVISVP2,2013-02-20 23:02:00,
2013-02-20 18:07:00,31.0,15.4,30.09,North,355,4.0,12.0,52,0.00,,,0.00,WUHU216DAVISVP2,2013-02-20 23:07:00,
2013-02-20 18:12:00,30.9,15.3,30.10,North,360,2.0,12.0,52,0.00,,,0.00,WUHU216DAVISVP2,2013-02-20 23:12:00,
2013-02-20 18:17:00,30.7,15.1,30.10,NW,311,1.0,12.0,52,0.00,,,0.00,WUHU216DAVISVP2,2013-02-20 23:17:00,
2013-02-20 18:22:00,30.5,15.4,30.10,North,5,1.0,9.0,53,0.00,,,0.00,WUHU216DAVISVP2,2013-02-20 23:22:00,
2013-02-20 18:27:00,30.4,14.8,30.10,NW,320,2.0,9.0,52,0.00,,,0.00,WUHU216DAVISVP2,2013-02-20 23:27:00,
2013-02-20 18:32:00,30.3,14.3,30.11,West,271,5.0,16.0,51,0.00,,,0.00,WUHU216DAVISVP2,2013-02-20 23:32:00,
2013-02-20 18:37:00,30.1,14.5,30.11,NW,305,1.0,16.0,52,0.00,,,0.00,WUHU216DAVISVP2,2013-02-20 23:37:00,
2013-02-20 18:42:00,30.0,14.0,30.11,WNW,285,6.0,16.0,51,0.00,,,0.00,WUHU216DAVISVP2,2013-02-20 23:42:00,
2013-02-20 18:47:00,29.8,13.3,30.11,West,277,11.0,16.0,50,0.00,,,0.00,WUHU216DAVISVP2,2013-02-20 23:47:00,
2013-02-20 18:52:00,29.7,13.7,30.12,West,267,7.0,17.0,51,0.00,,,0.00,WUHU216DAVISVP2,2013-02-20 23:52:00,
2013-02-20 18:57:00,29.6,13.6,30.12,WNW,298,7.0,17.0,51,0.00,,,0.00,WUHU216DAVISVP2,2013-02-20 23:57:00,
2013-02-20 19:02:00,29.3,13.3,30.12,West,275,2.0,17.0,51,0.00,,,0.00,WUHU216DAVISVP2,2013-02-21 00:02:00,
2013-02-20 19:07:00,29.1,13.2,30.13,NW,320,2.0,17.0,51,0.00,,,0.00,WUHU216DAVISVP2,2013-02-21 00:07:00,
2013-02-20 19:12:00,28.9,13.0,30.13,WNW,284,2.0,14.0,51,0.00,,,0.00,WUHU216DAVISVP2,2013-02-21 00:12:00,
2013-02-20 19:17:00,28.7,12.8,30.13,West,275,4.0,13.0,51,0.00,,,0.00,WUHU216DAVISVP2,2013-02-21 00:17:00,
2013-02-20 19:22:00,28.5,12.6,30.13,West,276,4.0,13.0,51,0.00,,,0.00,WUHU216DAVISVP2,2013-02-21 00:22:00,
2013-02-20 19:27:00,28.4,12.5,30.13,WNW,286,8.0,17.0,51,0.00,,,0.00,WUHU216DAVISVP2,2013-02-21 00:27:00,
2013-02-20 19:32:00,28.3,12.0,30.13,WNW,292,9.0,17.0,50,0.00,,,0.00,WUHU216DAVISVP2,2013-02-21 00:32:00,
2013-02-20 19:37:00,28.1,12.2,30.13,NW,306,5.0,17.0,51,0.00,,,0.00,WUHU216DAVISVP2,2013-02-21 00:37:00,
2013-02-20 19:42:00,28.0,11.7,30.13,West,277,16.0,17.0,50,0.00,,,0.00,WUHU216DAVISVP2,2013-02-21 00:42:00,
2013-02-20 19:47:00,28.0,12.1,30.13,WNW,285,4.0,16.0,51,0.00,,,0.00,WUHU216DAVISVP2,2013-02-21 00:47:00,
2013-02-20 19:52:00,27.9,12.0,30.13,NE,43,4.0,16.0,51,0.00,,,0.00,WUHU216DAVISVP2,2013-02-21 00:52:00,
2013-02-20 19:57:00,27.8,12.0,30.13,West,281,1.0,16.0,51,0.00,,,0.00,WUHU216DAVISVP2,2013-02-21 00:57:00,
2013-02-20 20:02:00,27.6,12.2,30.13,West,279,5.0,10.0,52,0.00,,,0.00,WUHU216DAVISVP2,2013-02-21 01:02:00,
2013-02-20 20:07:00,27.5,11.7,30.13,West,279,4.0,10.0,51,0.00,,,0.00,WUHU216DAVISVP2,2013-02-21 01:07:00,
2013-02-20 20:12:00,27.4,11.6,30.13,WNW,297,11.0,11.0,51,0.00,,,0.00,WUHU216DAVISVP2,2013-02-21 01:12:00,
2013-02-20 20:17:00,27.3,11.5,30.13,WNW,287,7.0,11.0,51,0.00,,,0.00,WUHU216DAVISVP2,2013-02-21 01:17:00,
2013-02-20 20:22:00,27.3,11.0,30.13,NW,312,1.0,11.0,50,0.00,,,0.00,WUHU216DAVISVP2,2013-02-21 01:22:00,
2013-02-20 20:27:00,27.2,11.4,30.13,WNW,286,0.0,11.0,51,0.00,,,0.00,WUHU216DAVISVP2,2013-02-21 01:27:00,
2013-02-20 20:32:00,27.2,11.4,30.13,NNW,329,2.0,13.0,51,0.00,,,0.00,WUHU216DAVISVP2,2013-02-21 01:32:00,
2013-02-20 20:37:00,27.2,11.4,30.14,North,350,2.0,13.0,51,0.00,,,0.00,WUHU216DAVISVP2,2013-02-21 01:37:00,
2013-02-20 20:42:00,27.0,10.8,30.14,WNW,293,4.0,13.0,50,0.00,,,0.00,WUHU216DAVISVP2,2013-02-21 01:42:00,
2013-02-20 20:47:00,27.0,11.2,30.14,NW,304,0.0,13.0,51,0.00,,,0.00,WUHU216DAVISVP2,2013-02-21 01:47:00,
2013-02-20 20:52:00,27.0,11.2,30.14,WSW,250,5.0,17.0,51,0.00,,,0.00,WUHU216DAVISVP2,2013-02-21 01:52:00,
2013-02-20 20:57:00,26.9,11.1,30.14,WNW,283,3.0,17.0,51,0.00,,,0.00,WUHU216DAVISVP2,2013-02-21 01:57:00,
2013-02-20 21:02:00,26.9,11.1,30.14,West,271,0.0,17.0,51,0.00,,,0.00,WUHU216DAVISVP2,2013-02-21 02:02:00,
2013-02-20 21:07:00,26.9,11.1,30.14,NW,323,9.0,17.0,51,0.00,,,0.00,WUHU216DAVISVP2,2013-02-21 02:07:00,
2013-02-20 21:12:00,26.9,11.6,30.14,WSW,254,10.0,13.0,52,0.00,,,0.00,WUHU216DAVISVP2,2013-02-21 02:12:00,
2013-02-20 21:17:00,26.8,11.0,30.15,West,277,7.0,13.0,51,0.00,,,0.00,WUHU216DAVISVP2,2013-02-21 02:17:00,
2013-02-20 21:22:00,26.7,10.9,30.15,West,269,2.0,13.0,51,0.00,,,0.00,WUHU216DAVISVP2,2013-02-21 02:22:00,
2013-02-20 21:27:00,26.6,11.7,30.15,West,273,2.0,10.0,53,0.00,,,0.00,WUHU216DAVISVP2,2013-02-21 02:27:00,
2013-02-20 21:32:00,26.5,11.2,30.15,West,273,2.0,9.0,52,0.00,,,0.00,WUHU216DAVISVP2,2013-02-21 02:32:00,
2013-02-20 21:37:00,26.3,11.5,30.15,West,281,3.0,7.0,53,0.00,,,0.00,WUHU216DAVISVP2,2013-02-21 02:37:00,
2013-02-20 21:42:00,26.2,10.9,30.15,West,279,10.0,11.0,52,0.00,,,0.00,WUHU216DAVISVP2,2013-02-21 02:42:00,
2013-02-20 21:47:00,26.3,11.5,30.15,WNW,295,0.0,11.0,53,0.00,,,0.00,WUHU216DAVISVP2,2013-02-21 02:47:00,
2013-02-20 21:52:00,26.2,11.4,30.15,NW,320,1.0,11.0,53,0.00,,,0.00,WUHU216DAVISVP2,2013-02-21 02:52:00,
2013-02-20 21:57:00,26.1,11.3,30.16,WNW,292,4.0,11.0,53,0.00,,,0.00,WUHU216DAVISVP2,2013-02-21 02:57:00,
2013-02-20 22:02:00,26.1,11.3,30.16,WNW,289,3.0,9.0,53,0.00,,,0.00,WUHU216DAVISVP2,2013-02-21 03:02:00,
2013-02-20 22:07:00,26.0,11.2,30.16,West,275,1.0,9.0,53,0.00,,,0.00,WUHU216DAVISVP2,2013-02-21 03:07:00,
2013-02-20 22:12:00,26.0,11.6,30.16,West,270,4.0,9.0,54,0.00,,,0.00,WUHU216DAVISVP2,2013-02-21 03:12:00,
2013-02-20 22:17:00,25.8,11.0,30.16,West,265,5.0,9.0,53,0.00,,,0.00,WUHU216DAVISVP2,2013-02-21 03:17:00,
2013-02-20 22:22:00,25.8,11.4,30.16,West,261,3.0,9.0,54,0.00,,,0.00,WUHU216DAVISVP2,2013-02-21 03:22:00,
2013-02-20 22:27:00,25.8,11.4,30.16,West,281,4.0,9.0,54,0.00,,,0.00,WUHU216DAVISVP2,2013-02-21 03:27:00,
2013-02-20 22:32:00,25.8,11.4,30.16,West,277,1.0,11.0,54,0.00,,,0.00,WUHU216DAVISVP2,2013-02-21 03:32:00,
2013-02-20 22:37:00,25.7,11.3,30.16,WSW,257,4.0,11.0,54,0.00,,,0.00,WUHU216DAVISVP2,2013-02-21 03:37:00,
2013-02-20 22:42:00,25.7,11.3,30.16,WNW,286,0.0,11.0,54,0.00,,,0.00,WUHU216DAVISVP2,2013-02-21 03:42:00,
2013-02-20 22:47:00,25.6,11.7,30.16,WNW,286,3.0,11.0,55,0.00,,,0.00,WUHU216DAVISVP2,2013-02-21 03:47:00,
2013-02-20 22:53:00,25.5,11.6,30.16,West,274,4.0,11.0,55,0.00,,,0.00,WUHU216DAVISVP2,2013-02-21 03:53:00,
2013-02-20 22:58:00,25.5,12.0,30.17,West,275,3.0,11.0,56,0.00,,,0.00,WUHU216DAVISVP2,2013-02-21 03:58:00,
2013-02-20 23:03:00,25.5,11.6,30.16,WNW,292,2.0,12.0,55,0.00,,,0.00,WUHU216DAVISVP2,2013-02-21 04:03:00,
2013-02-20 23:08:00,25.5,11.6,30.16,West,273,4.0,13.0,55,0.00,,,0.00,WUHU216DAVISVP2,2013-02-21 04:08:00,
2013-02-20 23:13:00,25.5,12.0,30.16,WNW,286,3.0,13.0,56,0.00,,,0.00,WUHU216DAVISVP2,2013-02-21 04:13:00,
2013-02-20 23:18:00,25.5,12.0,30.16,WNW,294,1.0,13.0,56,0.00,,,0.00,WUHU216DAVISVP2,2013-02-21 04:18:00,
2013-02-20 23:23:00,25.5,12.0,30.15,West,275,5.0,13.0,56,0.00,,,0.00,WUHU216DAVISVP2,2013-02-21 04:23:00,
2013-02-20 23:28:00,25.4,11.9,30.15,WNW,282,5.0,13.0,56,0.00,,,0.00,WUHU216DAVISVP2,2013-02-21 04:28:00,
2013-02-20 23:33:00,25.4,12.3,30.15,West,278,3.0,12.0,57,0.00,,,0.00,WUHU216DAVISVP2,2013-02-21 04:33:00,
2013-02-20 23:38:00,25.3,12.6,30.15,WNW,290,2.0,10.0,58,0.00,,,0.00,WUHU216DAVISVP2,2013-02-21 04:38:00,
2013-02-20 23:43:00,25.2,12.1,30.15,WSW,242,1.0,10.0,57,0.00,,,0.00,WUHU216DAVISVP2,2013-02-21 04:43:00,
2013-02-20 23:48:00,25.2,12.5,30.15,West,269,3.0,12.0,58,0.00,,,0.00,WUHU216DAVISVP2,2013-02-21 04:48:00,
2013-02-20 23:53:00,25.2,12.1,30.15,NW,304,4.0,12.0,57,0.00,,,0.00,WUHU216DAVISVP2,2013-02-21 04:53:00,
2013-02-20 23:58:00,25.2,12.5,30.15,West,259,5.0,12.0,58,0.00,,,0.00,WUHU216DAVISVP2,2013-02-21 04:58:00,